EDL weather

Eldoret International Airport
Eldoret, Rift Valley Province, Kenya

Public forecast

Using degrees Celsius for public forecast. Weather courtesy of forecast.io.

Current aviation weather report (METAR) for Eldoret International Airport

Retrieved 2019/10/17 16:00 UTC (39 minutes ago):

HKEL 171600Z VRB02KT 9999 FEW014 FEW018CB BKN080 17/14 RETS Q1023

Aviation forecast (TAF) for Eldoret International Airport

Retrieved 2019/10/17 12:54 UTC (4 hours ago):

TAF TAF HKEL 171100Z 1712/1812 12010KT 9999 BKN023 TEMPO 1712/1718 VRB05KT -TSRA FEW021CB BKN022 BKN080 BECMG 1720/1723 -RA FEW017 BKN070 BECMG 1808/1811 12005KT NSW FEW018CB BKN020